Terminal Aerodrome Forecast
Issued by NWS

Home | Current Version | Previous Version | Text Only | Print | Product List | Glossary On
Versions: 1 2 3 4 5 6 7 8 9 10 11 12 13 14 15 16 17 18 19 20 21 22 23 24
000
FTUS41 KBUF 221700
TAFJHW
TAF
KJHW 221726Z 2218/2318 16011KT P6SM SKC
     FM230300 14007KT P6SM BKN035 OVC130
     FM230600 14008KT P6SM VCSH BKN030 OVC040
     FM231200 14008KT P6SM VCSH BKN015 OVC050
      AMD LTD TO CLD VIS AND WIND=

USA.gov is the U.S. government's official web portal to all federal, state and local government web resources and services.